Norrhoeg, Sweden

6:19 PM CEST on May 04, 2015 (GMT +0200)
Huskasnas | | Change Station
CLOSE
Current Station
Personal Weather Station
Location: Ramsjo, HALSINGLAND
Elevation: 712 ft
Nearby Weather Stations

Elev 712 ft 62.05 °N, 15.82 °E | Updated 16 seconds ago

Clear
Clear
42.6 °F
Feels Like 36 °F
N
13.6
Wind Variable Wind from South
Gusts 30.4 mph

Today
High -- | Low -- °F
--% Chance of Precip.
Yesterday
High -- | Low -- °F
Precip. -- in
4:34 AM 9:15 PM
Full, 100% visible
Pressure 29.92 in
Visibility -9999.0 miles
Clouds
Windchill 36 °F
Dew Point 34 °F
Humidity 72%
Rainfall 0.00 in
Snow Depth Not available.
UV Not available.
Pollen Not available.
Air Quality Not available.
Flu Activity Not available.
METAR ESNN 041550Z 15009KT CAVOK 07/03 Q1013

More Conditions Fewer Conditions

Pressure 29.92 in
Visibility -9999.0 miles
Clouds
Windchill 36 °F
Dew Point 34 °F
Humidity 72%
Rainfall 0.00 in
Snow Depth Not available.
UV Not available.
Pollen Not available.
Air Quality Not available.
Flu Activity Not available.
METAR ESNN 041550Z 15009KT CAVOK 07/03 Q1013

More Conditions Fewer Conditions

10-Day Weather Forecast

Almanac

Astronomy

May. 04, 2015 Rise Set
Actual Time
Civil Twilight
Nautical Twilight
Astronomical Twilight
Moon
Length of Visible Light
Length of Day
Tomorrow will be .
, % of the Moon is Illuminated

Today's Extremes

Country Highs Country Lows

Community

WunderPhotos

Upload Photos

1,818,642 photos uploaded!

WunderBlogs® & News

Nearby

Air Quality

  Air Quality AQ Index Pollutant
Not available.

Snow Depth

Station Depth Elevation

Earthquake Activity

City Distance Mag. Time & Date
Minimum magnitude displayed is 2.5.

Coastal Water Temperatures

Place Temperature

Stations

Nearby Weather Stations

Station Location Temp. Windchill Dew Point Humidity Wind Precip. Elev Updated Type